createdAt,value
2022-12-23T00:00:23.000Z,7.50
2022-12-23T00:01:23.000Z,7.49
2022-12-23T00:02:23.000Z,7.52
2022-12-23T00:03:23.000Z,7.50
2022-12-23T00:04:23.000Z,7.55
2022-12-23T00:05:23.000Z,7.52
2022-12-23T00:06:23.000Z,7.55
2022-12-23T00:07:23.000Z,7.59
2022-12-23T00:08:23.000Z,7.56
2022-12-23T00:09:23.000Z,7.58
2022-12-23T00:10:23.000Z,7.58
2022-12-23T00:11:23.000Z,7.59
2022-12-23T00:12:23.000Z,7.58
2022-12-23T00:13:23.000Z,7.60
2022-12-23T00:14:23.000Z,7.60
2022-12-23T00:15:23.000Z,7.62
2022-12-23T00:16:23.000Z,7.67
2022-12-23T00:17:23.000Z,7.63
2022-12-23T00:18:23.000Z,7.60
2022-12-23T00:19:23.000Z,7.66
2022-12-23T00:20:23.000Z,7.66
2022-12-23T00:21:23.000Z,7.63
2022-12-23T00:22:23.000Z,7.62
2022-12-23T00:23:23.000Z,7.60
2022-12-23T00:24:23.000Z,7.62
2022-12-23T00:25:23.000Z,7.62
2022-12-23T00:26:23.000Z,7.62
2022-12-23T00:27:23.000Z,7.66
2022-12-23T00:28:23.000Z,7.63
2022-12-23T00:29:23.000Z,7.67
2022-12-23T00:30:23.000Z,7.60
2022-12-23T00:31:23.000Z,7.71
2022-12-23T00:32:23.000Z,7.69
2022-12-23T00:33:23.000Z,7.69
2022-12-23T00:34:23.000Z,7.72
2022-12-23T00:35:23.000Z,7.66
2022-12-23T00:36:23.000Z,7.71
2022-12-23T00:37:23.000Z,7.71
2022-12-23T00:38:23.000Z,7.72
2022-12-23T00:39:23.000Z,7.77
2022-12-23T00:40:23.000Z,7.78
2022-12-23T00:41:23.000Z,7.77
2022-12-23T00:42:23.000Z,7.82
2022-12-23T00:43:23.000Z,7.79
2022-12-23T00:44:23.000Z,7.84
2022-12-23T00:45:23.000Z,7.84
2022-12-23T00:46:23.000Z,7.85
2022-12-23T00:47:23.000Z,7.90
2022-12-23T00:48:23.000Z,7.89
2022-12-23T00:49:23.000Z,7.89
2022-12-23T00:50:23.000Z,7.89
2022-12-23T00:51:23.000Z,7.93
2022-12-23T00:52:23.000Z,7.92
2022-12-23T00:53:23.000Z,7.92
2022-12-23T00:54:23.000Z,7.94
2022-12-23T00:55:23.000Z,7.92
2022-12-23T00:56:23.000Z,7.90
2022-12-23T00:57:23.000Z,7.94
2022-12-23T00:58:23.000Z,7.97
2022-12-23T00:59:23.000Z,7.93
2022-12-23T01:00:23.000Z,7.99
2022-12-23T01:01:23.000Z,7.99
2022-12-23T01:02:23.000Z,7.96
2022-12-23T01:03:23.000Z,7.99
2022-12-23T01:04:23.000Z,7.97
2022-12-23T01:05:23.000Z,7.97
2022-12-23T01:06:23.000Z,7.97
2022-12-23T01:07:23.000Z,8.03
2022-12-23T01:08:23.000Z,8.02
2022-12-23T01:09:23.000Z,8.02
2022-12-23T01:10:23.000Z,8.00
2022-12-23T01:11:23.000Z,8.04
2022-12-23T01:12:23.000Z,8.02
2022-12-23T01:13:23.000Z,8.04
2022-12-23T01:14:23.000Z,8.07
2022-12-23T01:15:23.000Z,8.10
2022-12-23T01:16:23.000Z,8.04
2022-12-23T01:17:23.000Z,8.07
2022-12-23T01:18:23.000Z,8.04
2022-12-23T01:19:23.000Z,8.07
2022-12-23T01:20:23.000Z,8.04
2022-12-23T01:21:23.000Z,8.04
2022-12-23T01:22:23.000Z,8.11
2022-12-23T01:23:23.000Z,8.04
2022-12-23T01:24:23.000Z,8.03
2022-12-23T01:25:23.000Z,8.07
2022-12-23T01:26:23.000Z,8.08
2022-12-23T01:27:23.000Z,8.11
2022-12-23T01:28:23.000Z,8.10
2022-12-23T01:29:23.000Z,8.08
2022-12-23T01:30:23.000Z,8.08
2022-12-23T01:31:23.000Z,8.10
2022-12-23T01:32:23.000Z,8.08
2022-12-23T01:33:23.000Z,8.12
2022-12-23T01:34:23.000Z,8.12
2022-12-23T01:35:23.000Z,8.18
2022-12-23T01:36:23.000Z,8.17
2022-12-23T01:37:23.000Z,8.22
2022-12-23T01:38:23.000Z,8.20
2022-12-23T01:39:23.000Z,8.25
2022-12-23T01:40:23.000Z,8.25
2022-12-23T01:41:23.000Z,8.28
2022-12-23T01:42:23.000Z,8.26
2022-12-23T01:43:23.000Z,8.28
2022-12-23T01:44:23.000Z,8.30
2022-12-23T01:45:23.000Z,8.33
2022-12-23T01:46:23.000Z,8.32
2022-12-23T01:47:23.000Z,8.40
2022-12-23T01:48:23.000Z,8.35
2022-12-23T01:49:23.000Z,8.36
2022-12-23T01:50:23.000Z,8.42
2022-12-23T01:51:23.000Z,8.40
2022-12-23T01:52:23.000Z,8.37
2022-12-23T01:53:23.000Z,8.39
2022-12-23T01:54:23.000Z,8.44
2022-12-23T01:55:23.000Z,8.44
2022-12-23T01:56:23.000Z,8.42
2022-12-23T01:57:23.000Z,8.45
2022-12-23T01:58:23.000Z,8.45
2022-12-23T01:59:23.000Z,8.44
2022-12-23T02:00:23.000Z,8.45
2022-12-23T02:01:23.000Z,8.45
2022-12-23T02:02:23.000Z,8.50
2022-12-23T02:03:23.000Z,8.47
2022-12-23T02:04:23.000Z,8.47
2022-12-23T02:05:23.000Z,8.47
2022-12-23T02:06:23.000Z,8.53
2022-12-23T02:07:23.000Z,8.48
2022-12-23T02:08:23.000Z,8.50
2022-12-23T02:09:23.000Z,8.47
2022-12-23T02:10:23.000Z,8.48
2022-12-23T02:11:23.000Z,8.44
2022-12-23T02:12:23.000Z,8.45
2022-12-23T02:13:23.000Z,8.44
2022-12-23T02:14:23.000Z,8.45
2022-12-23T02:15:23.000Z,8.47
2022-12-23T02:16:23.000Z,8.45
2022-12-23T02:17:23.000Z,8.48
2022-12-23T02:18:23.000Z,8.40
2022-12-23T02:19:23.000Z,8.39
2022-12-23T02:20:23.000Z,8.47
2022-12-23T02:21:23.000Z,8.47
2022-12-23T02:22:23.000Z,8.48
2022-12-23T02:23:23.000Z,8.45
2022-12-23T02:24:23.000Z,8.50
2022-12-23T02:25:23.000Z,8.48
2022-12-23T02:26:23.000Z,8.57
2022-12-23T02:27:23.000Z,8.57
2022-12-23T02:28:23.000Z,8.58
2022-12-23T02:29:23.000Z,8.60
2022-12-23T02:30:23.000Z,8.57
2022-12-23T02:31:23.000Z,8.54
2022-12-23T02:32:23.000Z,8.53
2022-12-23T02:33:23.000Z,8.51
2022-12-23T02:34:23.000Z,8.51
2022-12-23T02:35:23.000Z,8.54
2022-12-23T02:36:23.000Z,8.57
2022-12-23T02:37:23.000Z,8.53
2022-12-23T02:38:23.000Z,8.50
2022-12-23T02:39:23.000Z,8.53
2022-12-23T02:40:23.000Z,8.53
2022-12-23T02:41:23.000Z,8.50
2022-12-23T02:42:23.000Z,8.48
2022-12-23T02:43:23.000Z,8.47
2022-12-23T02:44:23.000Z,8.55
2022-12-23T02:45:23.000Z,8.48
2022-12-23T02:46:23.000Z,8.47
2022-12-23T02:47:23.000Z,8.45
2022-12-23T02:48:23.000Z,8.47
2022-12-23T02:49:23.000Z,8.48
2022-12-23T02:50:23.000Z,8.44
2022-12-23T02:51:23.000Z,8.42
2022-12-23T02:52:23.000Z,8.45
2022-12-23T02:53:23.000Z,8.47
2022-12-23T02:54:23.000Z,8.45
2022-12-23T02:55:22.000Z,8.45
2022-12-23T02:56:22.000Z,8.44
2022-12-23T02:57:22.000Z,8.40
2022-12-23T02:58:22.000Z,8.42
2022-12-23T02:59:22.000Z,8.44
2022-12-23T03:00:22.000Z,8.39
2022-12-23T03:01:22.000Z,8.39
2022-12-23T03:02:22.000Z,8.39
2022-12-23T03:03:22.000Z,8.40
2022-12-23T03:04:22.000Z,8.37
2022-12-23T03:05:22.000Z,8.42
2022-12-23T03:06:22.000Z,8.42
2022-12-23T03:07:22.000Z,8.40
2022-12-23T03:08:22.000Z,8.40
2022-12-23T03:09:22.000Z,8.39
2022-12-23T03:10:22.000Z,8.37
2022-12-23T03:11:22.000Z,8.37
2022-12-23T03:12:22.000Z,8.39
2022-12-23T03:13:22.000Z,8.39
2022-12-23T03:14:22.000Z,8.39
2022-12-23T03:15:22.000Z,8.39
2022-12-23T03:16:22.000Z,8.40
2022-12-23T03:17:22.000Z,8.35
2022-12-23T03:18:22.000Z,8.37
2022-12-23T03:19:22.000Z,8.39
2022-12-23T03:20:22.000Z,8.35
2022-12-23T03:21:22.000Z,8.36
2022-12-23T03:22:22.000Z,8.32
2022-12-23T03:23:22.000Z,8.33
2022-12-23T03:24:22.000Z,8.33
2022-12-23T03:25:22.000Z,8.30
2022-12-23T03:26:22.000Z,8.33
2022-12-23T03:27:22.000Z,8.33
2022-12-23T03:28:22.000Z,8.32
2022-12-23T03:29:22.000Z,8.33
2022-12-23T03:30:22.000Z,8.39
2022-12-23T03:31:22.000Z,8.35
2022-12-23T03:32:22.000Z,8.36
2022-12-23T03:33:22.000Z,8.35
2022-12-23T03:34:22.000Z,8.33
2022-12-23T03:35:22.000Z,8.36
2022-12-23T03:36:22.000Z,8.35
2022-12-23T03:37:22.000Z,8.33
2022-12-23T03:38:22.000Z,8.33
2022-12-23T03:39:22.000Z,8.35
2022-12-23T03:40:22.000Z,8.33
2022-12-23T03:41:22.000Z,8.33
2022-12-23T03:42:22.000Z,8.33
2022-12-23T03:43:22.000Z,8.30
2022-12-23T03:44:22.000Z,8.33
2022-12-23T03:45:22.000Z,8.35
2022-12-23T03:46:22.000Z,8.35
2022-12-23T03:47:22.000Z,8.33
2022-12-23T03:48:22.000Z,8.35
2022-12-23T03:49:22.000Z,8.35
2022-12-23T03:50:22.000Z,8.35
2022-12-23T03:51:22.000Z,8.39
2022-12-23T03:52:22.000Z,8.35
2022-12-23T03:53:22.000Z,8.35
2022-12-23T03:54:22.000Z,8.39
2022-12-23T03:55:22.000Z,8.37
2022-12-23T03:56:22.000Z,8.44
2022-12-23T03:57:22.000Z,8.40
2022-12-23T03:58:22.000Z,8.39
2022-12-23T03:59:22.000Z,8.44
2022-12-23T04:00:22.000Z,8.42
2022-12-23T04:01:22.000Z,8.36
2022-12-23T04:02:22.000Z,8.39
2022-12-23T04:03:22.000Z,8.40
2022-12-23T04:04:22.000Z,8.44
2022-12-23T04:05:22.000Z,8.54
2022-12-23T04:06:22.000Z,8.51
2022-12-23T04:07:22.000Z,8.51
2022-12-23T04:08:22.000Z,8.51
2022-12-23T04:09:22.000Z,8.55
2022-12-23T04:10:22.000Z,8.54
2022-12-23T04:11:22.000Z,8.57
2022-12-23T04:12:22.000Z,8.55
2022-12-23T04:13:22.000Z,8.60
2022-12-23T04:14:22.000Z,8.63
2022-12-23T04:15:22.000Z,8.58
2022-12-23T04:16:22.000Z,8.58
2022-12-23T04:17:22.000Z,8.62
2022-12-23T04:18:22.000Z,8.63
2022-12-23T04:19:22.000Z,8.66
2022-12-23T04:20:22.000Z,8.69
2022-12-23T04:21:22.000Z,8.65
2022-12-23T04:22:22.000Z,8.66
2022-12-23T04:23:22.000Z,8.65
2022-12-23T04:24:22.000Z,8.69
2022-12-23T04:25:22.000Z,8.68
2022-12-23T04:26:22.000Z,8.65
2022-12-23T04:27:22.000Z,8.62
2022-12-23T04:28:22.000Z,8.65
2022-12-23T04:29:22.000Z,8.60
2022-12-23T04:30:22.000Z,8.60
2022-12-23T04:31:22.000Z,8.58
2022-12-23T04:32:22.000Z,8.60
2022-12-23T04:33:22.000Z,8.55
2022-12-23T04:34:22.000Z,8.58
2022-12-23T04:35:22.000Z,8.57
2022-12-23T04:36:22.000Z,8.58
2022-12-23T04:37:22.000Z,8.55
2022-12-23T04:38:22.000Z,8.57
2022-12-23T04:39:22.000Z,8.57
2022-12-23T04:40:22.000Z,8.51
2022-12-23T04:41:22.000Z,8.50
2022-12-23T04:42:22.000Z,8.53
2022-12-23T04:43:22.000Z,8.50
2022-12-23T04:44:22.000Z,8.47
2022-12-23T04:45:22.000Z,8.48
2022-12-23T04:46:22.000Z,8.50
2022-12-23T04:47:22.000Z,8.48
2022-12-23T04:48:22.000Z,8.44
2022-12-23T04:49:22.000Z,8.47
2022-12-23T04:50:22.000Z,8.45
2022-12-23T04:51:22.000Z,8.44
2022-12-23T04:52:22.000Z,8.44
2022-12-23T04:53:22.000Z,8.47
2022-12-23T04:54:22.000Z,8.44
2022-12-23T04:55:22.000Z,8.48
2022-12-23T04:56:22.000Z,8.44
2022-12-23T04:57:22.000Z,8.42
2022-12-23T04:58:22.000Z,8.44
2022-12-23T04:59:22.000Z,8.42
2022-12-23T05:00:21.000Z,8.39
2022-12-23T05:01:21.000Z,8.36
2022-12-23T05:02:21.000Z,8.44
2022-12-23T05:03:21.000Z,8.36
2022-12-23T05:04:21.000Z,8.37
2022-12-23T05:05:21.000Z,8.37
2022-12-23T05:06:21.000Z,8.35
2022-12-23T05:07:21.000Z,8.37
2022-12-23T05:08:21.000Z,8.37
2022-12-23T05:09:21.000Z,8.42
2022-12-23T05:10:21.000Z,8.42
2022-12-23T05:11:21.000Z,8.39
2022-12-23T05:12:21.000Z,8.39
2022-12-23T05:13:21.000Z,8.39
2022-12-23T05:14:21.000Z,8.39
2022-12-23T05:15:21.000Z,8.39
2022-12-23T05:16:21.000Z,8.40
2022-12-23T05:17:21.000Z,8.37
2022-12-23T05:18:21.000Z,8.39
2022-12-23T05:19:21.000Z,8.37
2022-12-23T05:20:21.000Z,8.40
2022-12-23T05:21:21.000Z,8.39
2022-12-23T05:22:21.000Z,8.44
2022-12-23T05:23:21.000Z,8.40
2022-12-23T05:24:21.000Z,8.40
2022-12-23T05:25:21.000Z,8.42
2022-12-23T05:26:21.000Z,8.45
2022-12-23T05:27:21.000Z,8.45
2022-12-23T05:28:21.000Z,8.45
2022-12-23T05:29:21.000Z,8.48
2022-12-23T05:30:21.000Z,8.48
2022-12-23T05:31:21.000Z,8.50
2022-12-23T05:32:21.000Z,8.44
2022-12-23T05:33:21.000Z,8.48
2022-12-23T05:34:21.000Z,8.47
2022-12-23T05:35:21.000Z,8.50
2022-12-23T05:36:21.000Z,8.45
2022-12-23T05:37:21.000Z,8.42
2022-12-23T05:38:21.000Z,8.39
2022-12-23T05:39:21.000Z,8.39
2022-12-23T05:40:21.000Z,8.42
2022-12-23T05:41:21.000Z,8.44
2022-12-23T05:42:21.000Z,8.40
2022-12-23T05:43:21.000Z,8.39
2022-12-23T05:44:21.000Z,8.39
2022-12-23T05:45:21.000Z,8.40
2022-12-23T05:46:21.000Z,8.42
2022-12-23T05:47:21.000Z,8.40
2022-12-23T05:48:21.000Z,8.40
2022-12-23T05:49:21.000Z,8.40
2022-12-23T05:50:21.000Z,8.42
2022-12-23T05:51:21.000Z,8.39
2022-12-23T05:52:21.000Z,8.42
2022-12-23T05:53:21.000Z,8.42
2022-12-23T05:54:21.000Z,8.47
2022-12-23T05:55:21.000Z,8.44
2022-12-23T05:56:21.000Z,8.42
2022-12-23T05:57:21.000Z,8.44
2022-12-23T05:58:21.000Z,8.44
2022-12-23T05:59:21.000Z,8.44
2022-12-23T06:00:21.000Z,8.48
2022-12-23T06:01:21.000Z,8.45
2022-12-23T06:02:21.000Z,8.45
2022-12-23T06:03:21.000Z,8.47
2022-12-23T06:04:21.000Z,8.50
2022-12-23T06:05:21.000Z,8.47
2022-12-23T06:06:21.000Z,8.48
2022-12-23T06:07:21.000Z,8.45
2022-12-23T06:08:21.000Z,8.53
2022-12-23T06:09:21.000Z,8.54
2022-12-23T06:10:21.000Z,8.57
2022-12-23T06:11:21.000Z,8.60
2022-12-23T06:12:21.000Z,8.60
2022-12-23T06:13:21.000Z,8.65
2022-12-23T06:14:21.000Z,8.62
2022-12-23T06:15:21.000Z,8.63
2022-12-23T06:16:21.000Z,8.63
2022-12-23T06:17:21.000Z,8.65
2022-12-23T06:18:21.000Z,8.66
2022-12-23T06:19:21.000Z,8.65
2022-12-23T06:20:21.000Z,8.65
2022-12-23T06:21:21.000Z,8.65
2022-12-23T06:22:21.000Z,8.65
2022-12-23T06:23:21.000Z,8.63
2022-12-23T06:24:21.000Z,8.65
2022-12-23T06:25:21.000Z,8.65
2022-12-23T06:26:21.000Z,8.62
2022-12-23T06:27:21.000Z,8.65
2022-12-23T06:28:21.000Z,8.66
2022-12-23T06:29:21.000Z,8.63
2022-12-23T06:30:21.000Z,8.69
2022-12-23T06:31:21.000Z,8.72
2022-12-23T06:32:21.000Z,8.72
2022-12-23T06:33:21.000Z,8.72
2022-12-23T06:34:21.000Z,8.76
2022-12-23T06:35:21.000Z,8.73
2022-12-23T06:36:21.000Z,8.76
2022-12-23T06:37:21.000Z,8.73
2022-12-23T06:38:21.000Z,8.73
2022-12-23T06:39:21.000Z,8.72
2022-12-23T06:40:21.000Z,8.75
2022-12-23T06:41:21.000Z,8.76
2022-12-23T06:42:21.000Z,8.72
2022-12-23T06:43:21.000Z,8.72
2022-12-23T06:44:21.000Z,8.76
2022-12-23T06:45:21.000Z,8.75
2022-12-23T06:46:21.000Z,8.72
2022-12-23T06:47:21.000Z,8.75
2022-12-23T06:48:21.000Z,8.76
2022-12-23T06:49:21.000Z,8.78
2022-12-23T06:50:21.000Z,8.81
2022-12-23T06:51:21.000Z,8.78
2022-12-23T06:52:21.000Z,8.81
2022-12-23T06:53:21.000Z,8.81
2022-12-23T06:54:21.000Z,8.84
2022-12-23T06:55:21.000Z,8.78
2022-12-23T06:56:21.000Z,8.83
2022-12-23T06:57:21.000Z,8.79
2022-12-23T06:58:21.000Z,8.81
2022-12-23T06:59:21.000Z,8.84
2022-12-23T07:00:21.000Z,8.79
2022-12-23T07:01:21.000Z,8.86
2022-12-23T07:02:21.000Z,8.79
2022-12-23T07:03:20.000Z,8.79
2022-12-23T07:04:20.000Z,8.86
2022-12-23T07:05:20.000Z,8.83
2022-12-23T07:06:20.000Z,8.84
2022-12-23T07:07:20.000Z,8.84
2022-12-23T07:08:20.000Z,8.86
2022-12-23T07:09:20.000Z,8.83
2022-12-23T07:10:20.000Z,8.86
2022-12-23T07:11:20.000Z,8.88
2022-12-23T07:12:20.000Z,8.88
2022-12-23T07:13:20.000Z,8.88
2022-12-23T07:14:20.000Z,8.88
2022-12-23T07:15:20.000Z,8.88
2022-12-23T07:16:20.000Z,8.87
2022-12-23T07:17:20.000Z,8.86
2022-12-23T07:18:20.000Z,8.90
2022-12-23T07:19:20.000Z,8.88
2022-12-23T07:20:20.000Z,8.88
2022-12-23T07:21:20.000Z,8.86
2022-12-23T07:22:20.000Z,8.90
2022-12-23T07:23:20.000Z,8.87
2022-12-23T07:24:20.000Z,8.90
2022-12-23T07:25:20.000Z,8.90
2022-12-23T07:26:20.000Z,8.88
2022-12-23T07:27:20.000Z,8.91
2022-12-23T07:28:20.000Z,8.90
2022-12-23T07:29:20.000Z,8.93
2022-12-23T07:30:20.000Z,8.91
2022-12-23T07:31:20.000Z,8.87
2022-12-23T07:32:20.000Z,8.90
2022-12-23T07:33:20.000Z,8.88
2022-12-23T07:34:20.000Z,8.86
2022-12-23T07:35:20.000Z,8.90
2022-12-23T07:36:20.000Z,8.87
2022-12-23T07:37:20.000Z,8.87
2022-12-23T07:38:20.000Z,8.90
2022-12-23T07:39:20.000Z,8.88
2022-12-23T07:40:20.000Z,8.91
2022-12-23T07:41:20.000Z,8.93
2022-12-23T07:42:20.000Z,8.94
2022-12-23T07:43:20.000Z,8.94
2022-12-23T07:44:20.000Z,8.94
2022-12-23T07:45:20.000Z,8.94
2022-12-23T07:46:20.000Z,8.93
2022-12-23T07:47:20.000Z,8.94
2022-12-23T07:48:20.000Z,8.94
2022-12-23T07:49:20.000Z,8.99
2022-12-23T07:50:20.000Z,9.01
2022-12-23T07:51:20.000Z,9.01
2022-12-23T07:52:20.000Z,9.06
2022-12-23T07:53:20.000Z,9.06
2022-12-23T07:54:20.000Z,9.13
2022-12-23T07:55:20.000Z,9.13
2022-12-23T07:56:20.000Z,9.12
2022-12-23T07:57:20.000Z,9.15
2022-12-23T07:58:20.000Z,9.15
2022-12-23T07:59:20.000Z,9.13
2022-12-23T08:00:20.000Z,9.18
2022-12-23T08:01:20.000Z,9.20
2022-12-23T08:02:20.000Z,9.21
2022-12-23T08:03:20.000Z,9.21
2022-12-23T08:04:20.000Z,9.24
2022-12-23T08:05:20.000Z,9.25
2022-12-23T08:06:20.000Z,9.25
2022-12-23T08:07:20.000Z,9.25
2022-12-23T08:08:20.000Z,9.27
2022-12-23T08:09:20.000Z,9.31
2022-12-23T08:10:20.000Z,9.30
2022-12-23T08:11:20.000Z,9.31
2022-12-23T08:12:20.000Z,9.30
2022-12-23T08:13:20.000Z,9.32
2022-12-23T08:14:20.000Z,9.34
2022-12-23T08:15:20.000Z,9.39
2022-12-23T08:16:20.000Z,9.34
2022-12-23T08:17:20.000Z,9.40
2022-12-23T08:18:20.000Z,9.39
2022-12-23T08:19:20.000Z,9.38
2022-12-23T08:20:20.000Z,9.43
2022-12-23T08:21:20.000Z,9.40
2022-12-23T08:22:20.000Z,9.43
2022-12-23T08:23:20.000Z,9.42
2022-12-23T08:24:20.000Z,9.42
2022-12-23T08:25:20.000Z,9.43
2022-12-23T08:26:20.000Z,9.43
2022-12-23T08:27:20.000Z,9.45
2022-12-23T08:28:20.000Z,9.48
2022-12-23T08:29:20.000Z,9.48
2022-12-23T08:30:20.000Z,9.48
2022-12-23T08:31:20.000Z,9.46
2022-12-23T08:32:20.000Z,9.48
2022-12-23T08:33:20.000Z,9.49
2022-12-23T08:34:20.000Z,9.50
2022-12-23T08:35:20.000Z,9.52
2022-12-23T08:36:20.000Z,9.52
2022-12-23T08:37:20.000Z,9.57
2022-12-23T08:38:20.000Z,9.61
2022-12-23T08:39:20.000Z,9.58
2022-12-23T08:40:20.000Z,9.58
2022-12-23T08:41:20.000Z,9.60
2022-12-23T08:42:20.000Z,9.60
2022-12-23T08:43:19.000Z,9.60
2022-12-23T08:44:19.000Z,9.61
2022-12-23T08:45:19.000Z,9.60
2022-12-23T08:46:19.000Z,9.66
2022-12-23T08:47:19.000Z,9.61
2022-12-23T08:48:19.000Z,9.66
2022-12-23T08:49:19.000Z,9.64
2022-12-23T08:50:19.000Z,9.63
2022-12-23T08:51:19.000Z,9.64
2022-12-23T08:52:19.000Z,9.67
2022-12-23T08:53:19.000Z,9.70
2022-12-23T08:54:19.000Z,9.70
2022-12-23T08:55:19.000Z,9.71
2022-12-23T08:56:19.000Z,9.73
2022-12-23T08:57:19.000Z,9.75
2022-12-23T08:58:19.000Z,9.70
2022-12-23T08:59:19.000Z,9.76
2022-12-23T09:00:19.000Z,9.81
2022-12-23T09:01:19.000Z,9.79
2022-12-23T09:02:19.000Z,9.83
2022-12-23T09:03:19.000Z,9.81
2022-12-23T09:04:19.000Z,9.81
2022-12-23T09:05:19.000Z,9.81
2022-12-23T09:06:19.000Z,9.78
2022-12-23T09:07:19.000Z,9.82
2022-12-23T09:08:19.000Z,9.85
2022-12-23T09:09:19.000Z,9.81
2022-12-23T09:10:19.000Z,9.86
2022-12-23T09:11:19.000Z,9.82
2022-12-23T09:12:19.000Z,9.83
2022-12-23T09:13:19.000Z,9.86
2022-12-23T09:14:19.000Z,9.76
2022-12-23T09:15:19.000Z,9.79
2022-12-23T09:16:19.000Z,9.78
2022-12-23T09:17:19.000Z,9.81
2022-12-23T09:18:19.000Z,9.82
2022-12-23T09:19:19.000Z,9.82
2022-12-23T09:20:19.000Z,9.81
2022-12-23T09:21:19.000Z,9.83
2022-12-23T09:22:19.000Z,9.86
2022-12-23T09:23:19.000Z,9.88
2022-12-23T09:24:19.000Z,9.88
2022-12-23T09:25:19.000Z,9.93
2022-12-23T09:26:19.000Z,9.93
2022-12-23T09:26:19.000Z,9.93
2022-12-23T09:27:19.000Z,9.91
2022-12-23T09:27:19.000Z,9.91
2022-12-23T09:28:19.000Z,9.93
2022-12-23T09:28:19.000Z,9.93
2022-12-23T09:29:19.000Z,9.91
2022-12-23T09:29:19.000Z,9.91
2022-12-23T09:30:19.000Z,9.96
2022-12-23T09:30:19.000Z,9.96
2022-12-23T09:31:19.000Z,9.96
2022-12-23T09:32:19.000Z,10.01
2022-12-23T09:33:19.000Z,9.99
2022-12-23T09:34:19.000Z,10.00
2022-12-23T09:35:18.000Z,10.01
2022-12-23T09:42:36.000Z,10.01
2022-12-23T09:42:36.000Z,10.01
2022-12-23T09:43:36.000Z,10.04
2022-12-23T09:44:36.000Z,10.03
2022-12-23T09:45:36.000Z,10.00
2022-12-23T10:40:31.000Z,10.30
2022-12-23T10:40:31.000Z,10.33
2022-12-23T10:41:31.000Z,10.36
2022-12-23T10:42:31.000Z,10.40
2022-12-23T10:43:31.000Z,10.43
2022-12-23T10:44:31.000Z,10.43
2022-12-23T10:45:31.000Z,10.44
2022-12-23T10:46:31.000Z,10.47
2022-12-23T10:47:31.000Z,10.53
2022-12-23T10:48:31.000Z,10.53
2022-12-23T10:49:31.000Z,10.58
2022-12-23T10:50:31.000Z,10.58
2022-12-23T10:51:31.000Z,10.60
2022-12-23T10:52:31.000Z,10.65
2022-12-23T10:53:31.000Z,10.65
2022-12-23T10:54:31.000Z,10.68
2022-12-23T10:55:31.000Z,10.66
2022-12-23T10:56:31.000Z,10.68
2022-12-23T10:57:31.000Z,10.74
2022-12-23T10:58:31.000Z,10.76
2022-12-23T10:59:31.000Z,10.77
2022-12-23T11:00:31.000Z,10.78
2022-12-23T11:01:31.000Z,10.78
2022-12-23T11:02:31.000Z,10.78
2022-12-23T11:03:31.000Z,10.81
2022-12-23T11:04:31.000Z,10.81
2022-12-23T11:05:31.000Z,10.80
2022-12-23T11:06:31.000Z,10.77
2022-12-23T11:07:31.000Z,10.73
2022-12-23T11:08:31.000Z,10.76
2022-12-23T11:09:31.000Z,10.73
2022-12-23T11:10:31.000Z,10.73
2022-12-23T11:11:31.000Z,10.71
2022-12-23T11:12:31.000Z,10.68
2022-12-23T11:13:31.000Z,10.66
2022-12-23T11:14:31.000Z,10.70
2022-12-23T11:15:31.000Z,10.68
2022-12-23T11:16:31.000Z,10.66
2022-12-23T11:17:31.000Z,10.63
2022-12-23T11:18:31.000Z,10.62
2022-12-23T11:19:31.000Z,10.63
2022-12-23T11:20:31.000Z,10.60
2022-12-23T11:21:31.000Z,10.60
2022-12-23T11:22:31.000Z,10.59
2022-12-23T11:23:31.000Z,10.62
2022-12-23T11:24:31.000Z,10.62
2022-12-23T11:25:31.000Z,10.60
2022-12-23T11:26:31.000Z,10.60
2022-12-23T11:27:31.000Z,10.60
2022-12-23T11:28:31.000Z,10.60
2022-12-23T11:29:31.000Z,10.62
2022-12-23T11:30:31.000Z,10.62
2022-12-23T11:31:31.000Z,10.63
2022-12-23T11:32:31.000Z,10.68
2022-12-23T11:33:31.000Z,10.74
2022-12-23T11:34:31.000Z,10.71
2022-12-23T11:35:31.000Z,10.74
2022-12-23T11:36:31.000Z,10.81
2022-12-23T11:37:31.000Z,10.81
2022-12-23T11:38:31.000Z,10.88
2022-12-23T11:39:31.000Z,10.91
2022-12-23T11:40:31.000Z,10.92
2022-12-23T11:41:31.000Z,11.01
2022-12-23T11:42:31.000Z,10.98
2022-12-23T11:43:31.000Z,10.99
2022-12-23T11:44:31.000Z,10.98
2022-12-23T11:45:31.000Z,10.99
2022-12-23T11:46:31.000Z,11.09
2022-12-23T11:47:31.000Z,11.06
2022-12-23T11:48:31.000Z,11.09
2022-12-23T11:49:31.000Z,11.10
2022-12-23T11:50:31.000Z,11.11
2022-12-23T11:51:31.000Z,11.10
2022-12-23T11:52:31.000Z,11.10
2022-12-23T11:53:31.000Z,11.11
2022-12-23T11:54:31.000Z,11.09
2022-12-23T11:55:31.000Z,11.07
2022-12-23T11:56:31.000Z,11.06
2022-12-23T11:57:31.000Z,11.10
2022-12-23T11:58:31.000Z,11.10
2022-12-23T11:59:31.000Z,11.02
2022-12-23T12:00:31.000Z,11.01
2022-12-23T12:01:31.000Z,10.99
2022-12-23T12:02:31.000Z,10.96
2022-12-23T12:03:31.000Z,10.95
2022-12-23T12:04:31.000Z,10.95
2022-12-23T12:05:31.000Z,10.92
2022-12-23T12:06:31.000Z,10.92
2022-12-23T12:07:31.000Z,10.89
2022-12-23T12:08:31.000Z,10.86
2022-12-23T12:09:31.000Z,10.89
2022-12-23T12:10:31.000Z,10.84
2022-12-23T12:11:31.000Z,10.86
2022-12-23T12:12:31.000Z,10.84
2022-12-23T12:13:31.000Z,10.84
2022-12-23T12:14:31.000Z,10.86
2022-12-23T12:15:31.000Z,10.81
2022-12-23T12:16:31.000Z,10.80
2022-12-23T12:17:31.000Z,10.80
2022-12-23T12:18:31.000Z,10.83
2022-12-23T12:19:31.000Z,10.78
2022-12-23T12:20:31.000Z,10.78
2022-12-23T12:21:31.000Z,10.77
2022-12-23T12:22:31.000Z,10.80
2022-12-23T12:23:31.000Z,10.81
2022-12-23T12:24:31.000Z,10.76
2022-12-23T12:25:31.000Z,10.78
2022-12-23T12:26:31.000Z,10.76
2022-12-23T12:27:31.000Z,10.74
2022-12-23T12:28:31.000Z,10.74
2022-12-23T12:29:31.000Z,10.73
2022-12-23T12:30:31.000Z,10.78
2022-12-23T12:31:31.000Z,10.74
2022-12-23T12:32:31.000Z,10.74
2022-12-23T12:33:31.000Z,10.78
2022-12-23T12:34:31.000Z,10.73
2022-12-23T12:35:31.000Z,10.74
2022-12-23T12:36:31.000Z,10.74
2022-12-23T12:37:31.000Z,10.73
2022-12-23T12:38:31.000Z,10.78
2022-12-23T12:39:31.000Z,10.74
2022-12-23T12:40:31.000Z,10.74
2022-12-23T12:41:31.000Z,10.73
2022-12-23T12:42:31.000Z,10.70
2022-12-23T12:43:31.000Z,10.66
2022-12-23T12:44:31.000Z,10.65
2022-12-23T12:45:31.000Z,10.63
2022-12-23T12:46:31.000Z,10.58
2022-12-23T12:47:31.000Z,10.58
2022-12-23T12:48:31.000Z,10.55
2022-12-23T12:49:31.000Z,10.56
2022-12-23T12:50:31.000Z,10.53
2022-12-23T12:51:31.000Z,10.53
2022-12-23T12:52:31.000Z,10.53
2022-12-23T12:53:31.000Z,10.53
2022-12-23T12:54:31.000Z,10.55
2022-12-23T12:55:31.000Z,10.51
2022-12-23T12:56:31.000Z,10.51
2022-12-23T12:57:30.000Z,10.44
2022-12-23T12:58:30.000Z,10.46
2022-12-23T12:59:30.000Z,10.46
2022-12-23T13:00:30.000Z,10.43
2022-12-23T13:01:30.000Z,10.42
2022-12-23T13:02:30.000Z,10.42
2022-12-23T13:03:30.000Z,10.34
2022-12-23T13:04:30.000Z,10.32
2022-12-23T13:05:30.000Z,10.28
2022-12-23T13:06:30.000Z,10.14
2022-12-23T13:07:30.000Z,10.07
2022-12-23T13:08:30.000Z,10.01
2022-12-23T13:09:30.000Z,9.93
2022-12-23T13:10:30.000Z,9.89
2022-12-23T13:11:30.000Z,9.86
2022-12-23T13:12:30.000Z,9.82
2022-12-23T13:13:30.000Z,9.82
2022-12-23T13:14:30.000Z,9.82
2022-12-23T13:15:30.000Z,9.78
2022-12-23T13:16:30.000Z,9.75
2022-12-23T13:17:30.000Z,9.75
2022-12-23T13:18:30.000Z,9.70
2022-12-23T13:19:30.000Z,9.64
2022-12-23T13:20:30.000Z,9.66
2022-12-23T13:21:30.000Z,9.63
2022-12-23T13:22:30.000Z,9.60
2022-12-23T13:23:30.000Z,9.58
2022-12-23T13:24:30.000Z,9.52
2022-12-23T13:25:30.000Z,9.53
2022-12-23T13:26:30.000Z,9.52
2022-12-23T13:27:30.000Z,9.48
2022-12-23T13:28:30.000Z,9.45
2022-12-23T13:29:30.000Z,9.43
2022-12-23T13:30:30.000Z,9.42
2022-12-23T13:31:30.000Z,9.42
2022-12-23T13:32:30.000Z,9.40
2022-12-23T13:33:30.000Z,9.39
2022-12-23T13:34:30.000Z,9.46
2022-12-23T13:35:30.000Z,9.39
2022-12-23T13:36:30.000Z,9.39
2022-12-23T13:37:30.000Z,9.38
2022-12-23T13:38:30.000Z,9.35
2022-12-23T13:39:30.000Z,9.38
2022-12-23T13:40:30.000Z,9.39
2022-12-23T13:41:30.000Z,9.34
2022-12-23T13:42:30.000Z,9.34
2022-12-23T13:43:30.000Z,9.32
2022-12-23T13:44:30.000Z,9.32
2022-12-23T13:45:30.000Z,9.28
2022-12-23T13:46:30.000Z,9.31
2022-12-23T13:47:30.000Z,9.30
2022-12-23T13:48:30.000Z,9.30
2022-12-23T13:49:30.000Z,9.27
2022-12-23T13:50:30.000Z,9.25
2022-12-23T13:51:30.000Z,9.23
2022-12-23T13:52:30.000Z,9.24
2022-12-23T13:53:30.000Z,9.20
2022-12-23T13:54:30.000Z,9.21
2022-12-23T13:55:30.000Z,9.20
2022-12-23T13:56:30.000Z,9.23
2022-12-23T13:57:30.000Z,9.24
2022-12-23T13:58:30.000Z,9.23
2022-12-23T13:59:30.000Z,9.25
2022-12-23T14:00:30.000Z,9.24
2022-12-23T14:01:30.000Z,9.23
2022-12-23T14:02:30.000Z,9.27
2022-12-23T14:03:30.000Z,9.24
2022-12-23T14:04:30.000Z,9.23
2022-12-23T14:05:30.000Z,9.24
2022-12-23T14:06:30.000Z,9.21